Hook Reef, Queensland

8:39 AM AEST on October 02, 2016 (GMT +1000)
Hamilton Island | | Change Station

Elev 16 ft 20.36 °S, 148.95 °E | Updated 9 minutes ago

Mostly Cloudy
Mostly Cloudy
79 °F
Feels Like 79 °F
N
6
Wind Variable Wind from East

Today
High -- | Low -- °F
--% Chance of Precip.
Yesterday
High -- | Low -- °F
Precip. -- in
Pressure 30.01 in
Visibility 6.2 miles
Clouds Mostly Cloudy 1400 ft
Mostly Cloudy 2100 ft
Mostly Cloudy 3100 ft
Dew Point 73 °F
Humidity 83%
Rainfall 0.00 in
Snow Depth Not available.
5:44 AM 6:01 PM
New Moon, 1% visible
SPECI YBHM 012230Z AUTO 08005KT 9999 // BKN014 BKN021 BKN031 26/23 Q1016
Pressure 30.01 in
Visibility 6.2 miles
Clouds Mostly Cloudy 1400 ft
Mostly Cloudy 2100 ft
Mostly Cloudy 3100 ft
Dew Point 73 °F
Humidity 83%
Rainfall 0.00 in
Snow Depth Not available.
5:44 AM 6:01 PM
New Moon, 1% visible
SPECI YBHM 012230Z AUTO 08005KT 9999 // BKN014 BKN021 BKN031 26/23 Q1016

10-Day Weather Forecast

No radar image for this location.
×

Almanac

Astronomy

Oct. 02, 2016 Rise Set
Actual Time
Civil Twilight
Nautical Twilight
Astronomical Twilight
Moon
Length of Visible Light
Length of Day
Tomorrow will be .
, % of the Moon is Illuminated

Today's Extremes

Country Highs Country Lows

Community

WunderPhotos

Upload Photos

1,943,041 photos uploaded!

WunderBlog® & News

Nearby

Air Quality

  Air Quality AQ Index Pollutant
Not available.

Snow Depth

Station Depth Elevation

Earthquake Activity

City Distance Mag. Time & Date
Minimum magnitude displayed is 2.5.

Coastal Water Temperatures

Place Temperature

Stations

Nearby Weather Stations

Station Location Temp. Windchill Dew Point Humidity Wind Precip. Elev Updated Type